sensor_id;sensor_type;location;lat;lon;timestamp;P1;durP1;ratioP1;P2;durP2;ratioP2
72388;SDS011;60566;48.062;9.930;2022-07-03T00:00:19;13.45;;;8.60;;
72388;SDS011;60566;48.062;9.930;2022-07-03T00:02:46;13.48;;;9.02;;
72388;SDS011;60566;48.062;9.930;2022-07-03T00:05:11;12.80;;;8.55;;
72388;SDS011;60566;48.062;9.930;2022-07-03T00:07:37;6.57;;;3.78;;
72388;SDS011;60566;48.062;9.930;2022-07-03T00:10:02;7.18;;;3.50;;
72388;SDS011;60566;48.062;9.930;2022-07-03T00:12:28;5.85;;;3.13;;
72388;SDS011;60566;48.062;9.930;2022-07-03T00:14:54;6.90;;;3.33;;
72388;SDS011;60566;48.062;9.930;2022-07-03T00:17:19;6.63;;;3.20;;
72388;SDS011;60566;48.062;9.930;2022-07-03T00:19:46;6.10;;;3.13;;
72388;SDS011;60566;48.062;9.930;2022-07-03T00:22:12;6.10;;;3.28;;
72388;SDS011;60566;48.062;9.930;2022-07-03T00:24:40;4.70;;;3.00;;
72388;SDS011;60566;48.062;9.930;2022-07-03T00:27:08;4.70;;;3.25;;
72388;SDS011;60566;48.062;9.930;2022-07-03T00:29:36;5.20;;;3.30;;
72388;SDS011;60566;48.062;9.930;2022-07-03T00:32:02;5.00;;;3.13;;
72388;SDS011;60566;48.062;9.930;2022-07-03T00:34:29;6.40;;;3.28;;
72388;SDS011;60566;48.062;9.930;2022-07-03T00:36:56;5.10;;;3.35;;
72388;SDS011;60566;48.062;9.930;2022-07-03T00:39:22;5.53;;;3.15;;
72388;SDS011;60566;48.062;9.930;2022-07-03T00:41:48;5.90;;;3.60;;
72388;SDS011;60566;48.062;9.930;2022-07-03T00:44:25;4.75;;;3.05;;
72388;SDS011;60566;48.062;9.930;2022-07-03T00:46:50;6.50;;;3.35;;
72388;SDS011;60566;48.062;9.930;2022-07-03T00:49:17;4.50;;;3.25;;
72388;SDS011;60566;48.062;9.930;2022-07-03T00:51:43;6.22;;;3.30;;
72388;SDS011;60566;48.062;9.930;2022-07-03T00:54:17;5.53;;;3.45;;
72388;SDS011;60566;48.062;9.930;2022-07-03T00:56:46;5.35;;;3.42;;
72388;SDS011;60566;48.062;9.930;2022-07-03T00:59:15;7.50;;;3.38;;
72388;SDS011;60566;48.062;9.930;2022-07-03T01:01:40;9.85;;;4.05;;
72388;SDS011;60566;48.062;9.930;2022-07-03T01:04:17;4.97;;;3.30;;
72388;SDS011;60566;48.062;9.930;2022-07-03T01:06:49;4.88;;;3.42;;
72388;SDS011;60566;48.062;9.930;2022-07-03T01:09:18;5.30;;;3.33;;
72388;SDS011;60566;48.062;9.930;2022-07-03T01:11:52;5.55;;;3.08;;
72388;SDS011;60566;48.062;9.930;2022-07-03T01:14:23;11.15;;;3.45;;
72388;SDS011;60566;48.062;9.930;2022-07-03T01:16:55;7.43;;;3.88;;
72388;SDS011;60566;48.062;9.930;2022-07-03T01:22:12;5.35;;;3.22;;
72388;SDS011;60566;48.062;9.930;2022-07-03T01:27:50;5.22;;;3.40;;
72388;SDS011;60566;48.062;9.930;2022-07-03T01:30:24;6.93;;;3.60;;
72388;SDS011;60566;48.062;9.930;2022-07-03T01:32:54;6.13;;;3.60;;
72388;SDS011;60566;48.062;9.930;2022-07-03T01:35:22;5.95;;;3.67;;
72388;SDS011;60566;48.062;9.930;2022-07-03T01:37:52;5.63;;;3.50;;
72388;SDS011;60566;48.062;9.930;2022-07-03T01:40:19;5.05;;;3.17;;
72388;SDS011;60566;48.062;9.930;2022-07-03T01:42:45;6.93;;;3.53;;
72388;SDS011;60566;48.062;9.930;2022-07-03T01:45:13;7.28;;;3.63;;
72388;SDS011;60566;48.062;9.930;2022-07-03T01:47:40;6.43;;;3.60;;
72388;SDS011;60566;48.062;9.930;2022-07-03T01:50:07;5.25;;;3.53;;
72388;SDS011;60566;48.062;9.930;2022-07-03T01:52:35;8.57;;;3.72;;
72388;SDS011;60566;48.062;9.930;2022-07-03T01:55:03;5.13;;;3.47;;
72388;SDS011;60566;48.062;9.930;2022-07-03T01:57:32;6.47;;;3.80;;
72388;SDS011;60566;48.062;9.930;2022-07-03T02:00:02;7.10;;;3.97;;
72388;SDS011;60566;48.062;9.930;2022-07-03T02:02:30;5.93;;;3.60;;
72388;SDS011;60566;48.062;9.930;2022-07-03T02:04:59;7.38;;;3.97;;
72388;SDS011;60566;48.062;9.930;2022-07-03T02:07:29;6.07;;;3.80;;
72388;SDS011;60566;48.062;9.930;2022-07-03T02:10:01;5.72;;;3.50;;
72388;SDS011;60566;48.062;9.930;2022-07-03T02:12:31;6.75;;;3.90;;
72388;SDS011;60566;48.062;9.930;2022-07-03T02:15:02;8.50;;;3.95;;
72388;SDS011;60566;48.062;9.930;2022-07-03T02:17:34;6.07;;;3.78;;
72388;SDS011;60566;48.062;9.930;2022-07-03T02:20:02;8.48;;;3.75;;
72388;SDS011;60566;48.062;9.930;2022-07-03T02:22:31;6.05;;;3.78;;
72388;SDS011;60566;48.062;9.930;2022-07-03T02:25:01;6.60;;;3.95;;
72388;SDS011;60566;48.062;9.930;2022-07-03T02:27:28;7.13;;;3.70;;
72388;SDS011;60566;48.062;9.930;2022-07-03T02:29:59;4.63;;;3.05;;
72388;SDS011;60566;48.062;9.930;2022-07-03T02:32:27;6.45;;;3.67;;
72388;SDS011;60566;48.062;9.930;2022-07-03T02:34:58;4.65;;;3.55;;
72388;SDS011;60566;48.062;9.930;2022-07-03T02:37:28;7.40;;;3.70;;
72388;SDS011;60566;48.062;9.930;2022-07-03T02:39:57;7.75;;;3.95;;
72388;SDS011;60566;48.062;9.930;2022-07-03T02:42:28;4.97;;;3.20;;
72388;SDS011;60566;48.062;9.930;2022-07-03T02:44:56;7.53;;;3.83;;
72388;SDS011;60566;48.062;9.930;2022-07-03T02:47:25;6.47;;;4.05;;
72388;SDS011;60566;48.062;9.930;2022-07-03T02:49:55;7.03;;;3.13;;
72388;SDS011;60566;48.062;9.930;2022-07-03T02:52:29;6.65;;;3.63;;
72388;SDS011;60566;48.062;9.930;2022-07-03T02:54:59;7.40;;;3.90;;
72388;SDS011;60566;48.062;9.930;2022-07-03T02:57:26;5.15;;;3.63;;
72388;SDS011;60566;48.062;9.930;2022-07-03T03:00:02;7.20;;;3.72;;
72388;SDS011;60566;48.062;9.930;2022-07-03T03:02:35;7.90;;;3.80;;
72388;SDS011;60566;48.062;9.930;2022-07-03T03:05:07;7.82;;;4.18;;
72388;SDS011;60566;48.062;9.930;2022-07-03T03:07:35;6.72;;;3.75;;
72388;SDS011;60566;48.062;9.930;2022-07-03T03:10:08;5.80;;;3.50;;
72388;SDS011;60566;48.062;9.930;2022-07-03T03:12:35;4.63;;;3.40;;
72388;SDS011;60566;48.062;9.930;2022-07-03T03:15:02;5.60;;;3.75;;
72388;SDS011;60566;48.062;9.930;2022-07-03T03:17:32;5.50;;;3.75;;
72388;SDS011;60566;48.062;9.930;2022-07-03T03:20:01;7.05;;;3.75;;
72388;SDS011;60566;48.062;9.930;2022-07-03T03:22:44;5.43;;;3.40;;
72388;SDS011;60566;48.062;9.930;2022-07-03T03:25:19;5.70;;;3.63;;
72388;SDS011;60566;48.062;9.930;2022-07-03T03:27:45;5.55;;;3.40;;
72388;SDS011;60566;48.062;9.930;2022-07-03T03:30:11;6.82;;;3.67;;
72388;SDS011;60566;48.062;9.930;2022-07-03T03:32:36;5.55;;;3.30;;
72388;SDS011;60566;48.062;9.930;2022-07-03T03:35:03;6.97;;;4.07;;
72388;SDS011;60566;48.062;9.930;2022-07-03T03:37:31;6.85;;;4.15;;
72388;SDS011;60566;48.062;9.930;2022-07-03T03:39:56;5.55;;;3.58;;
72388;SDS011;60566;48.062;9.930;2022-07-03T03:42:22;8.15;;;4.20;;
72388;SDS011;60566;48.062;9.930;2022-07-03T03:44:47;5.93;;;3.75;;
72388;SDS011;60566;48.062;9.930;2022-07-03T03:47:13;6.57;;;3.28;;
72388;SDS011;60566;48.062;9.930;2022-07-03T03:49:38;5.38;;;3.47;;
72388;SDS011;60566;48.062;9.930;2022-07-03T03:52:04;6.00;;;3.35;;
72388;SDS011;60566;48.062;9.930;2022-07-03T03:54:31;6.55;;;3.67;;
72388;SDS011;60566;48.062;9.930;2022-07-03T03:56:56;5.28;;;3.70;;
72388;SDS011;60566;48.062;9.930;2022-07-03T03:59:22;6.20;;;3.53;;
72388;SDS011;60566;48.062;9.930;2022-07-03T04:01:47;6.03;;;3.80;;
72388;SDS011;60566;48.062;9.930;2022-07-03T04:04:13;7.40;;;3.63;;
72388;SDS011;60566;48.062;9.930;2022-07-03T04:06:38;6.88;;;4.05;;
72388;SDS011;60566;48.062;9.930;2022-07-03T04:09:04;5.35;;;3.60;;
72388;SDS011;60566;48.062;9.930;2022-07-03T04:11:30;6.72;;;3.65;;
72388;SDS011;60566;48.062;9.930;2022-07-03T04:13:56;7.15;;;3.60;;
72388;SDS011;60566;48.062;9.930;2022-07-03T04:16:21;8.55;;;3.95;;
72388;SDS011;60566;48.062;9.930;2022-07-03T04:18:47;5.68;;;3.67;;
72388;SDS011;60566;48.062;9.930;2022-07-03T04:21:12;5.32;;;3.50;;
72388;SDS011;60566;48.062;9.930;2022-07-03T04:23:37;5.70;;;3.63;;
72388;SDS011;60566;48.062;9.930;2022-07-03T04:26:03;5.60;;;3.55;;
72388;SDS011;60566;48.062;9.930;2022-07-03T04:28:30;5.72;;;3.88;;
72388;SDS011;60566;48.062;9.930;2022-07-03T04:30:56;6.18;;;3.63;;
72388;SDS011;60566;48.062;9.930;2022-07-03T04:33:22;6.55;;;3.80;;
72388;SDS011;60566;48.062;9.930;2022-07-03T04:35:47;5.80;;;3.78;;
72388;SDS011;60566;48.062;9.930;2022-07-03T04:38:12;4.65;;;3.28;;
72388;SDS011;60566;48.062;9.930;2022-07-03T04:40:38;7.13;;;4.30;;
72388;SDS011;60566;48.062;9.930;2022-07-03T04:43:03;6.57;;;3.88;;
72388;SDS011;60566;48.062;9.930;2022-07-03T04:45:30;6.35;;;3.78;;
72388;SDS011;60566;48.062;9.930;2022-07-03T04:47:55;7.53;;;4.50;;
72388;SDS011;60566;48.062;9.930;2022-07-03T04:50:21;7.57;;;4.07;;
72388;SDS011;60566;48.062;9.930;2022-07-03T04:52:46;5.78;;;3.80;;
72388;SDS011;60566;48.062;9.930;2022-07-03T04:55:11;6.80;;;3.88;;
72388;SDS011;60566;48.062;9.930;2022-07-03T04:57:37;7.30;;;4.30;;
72388;SDS011;60566;48.062;9.930;2022-07-03T05:00:03;5.68;;;3.63;;
72388;SDS011;60566;48.062;9.930;2022-07-03T05:02:30;5.60;;;4.03;;
72388;SDS011;60566;48.062;9.930;2022-07-03T05:04:56;5.68;;;3.95;;
72388;SDS011;60566;48.062;9.930;2022-07-03T05:07:21;5.47;;;3.97;;
72388;SDS011;60566;48.062;9.930;2022-07-03T05:09:46;6.20;;;3.83;;
72388;SDS011;60566;48.062;9.930;2022-07-03T05:12:12;7.15;;;3.95;;
72388;SDS011;60566;48.062;9.930;2022-07-03T05:14:37;7.10;;;3.72;;
72388;SDS011;60566;48.062;9.930;2022-07-03T05:17:03;6.97;;;4.15;;
72388;SDS011;60566;48.062;9.930;2022-07-03T05:19:30;6.28;;;3.70;;
72388;SDS011;60566;48.062;9.930;2022-07-03T05:21:55;6.05;;;4.05;;
72388;SDS011;60566;48.062;9.930;2022-07-03T05:24:21;5.60;;;3.50;;
72388;SDS011;60566;48.062;9.930;2022-07-03T05:26:46;6.07;;;3.97;;
72388;SDS011;60566;48.062;9.930;2022-07-03T05:29:11;6.15;;;3.63;;
72388;SDS011;60566;48.062;9.930;2022-07-03T05:31:37;6.50;;;3.80;;
72388;SDS011;60566;48.062;9.930;2022-07-03T05:34:02;6.43;;;3.88;;
72388;SDS011;60566;48.062;9.930;2022-07-03T05:36:29;5.32;;;3.30;;
72388;SDS011;60566;48.062;9.930;2022-07-03T05:38:54;5.38;;;3.80;;
72388;SDS011;60566;48.062;9.930;2022-07-03T05:41:20;6.22;;;4.47;;
72388;SDS011;60566;48.062;9.930;2022-07-03T05:43:45;7.22;;;4.00;;
72388;SDS011;60566;48.062;9.930;2022-07-03T05:46:11;6.07;;;4.35;;
72388;SDS011;60566;48.062;9.930;2022-07-03T05:48:36;6.13;;;4.00;;
72388;SDS011;60566;48.062;9.930;2022-07-03T05:51:02;7.53;;;4.43;;
72388;SDS011;60566;48.062;9.930;2022-07-03T05:53:29;7.70;;;3.95;;
72388;SDS011;60566;48.062;9.930;2022-07-03T05:55:54;5.70;;;4.00;;
72388;SDS011;60566;48.062;9.930;2022-07-03T05:58:20;6.07;;;4.05;;
72388;SDS011;60566;48.062;9.930;2022-07-03T06:00:45;5.43;;;3.75;;
72388;SDS011;60566;48.062;9.930;2022-07-03T06:03:11;7.60;;;4.00;;
72388;SDS011;60566;48.062;9.930;2022-07-03T06:05:37;5.38;;;3.97;;
72388;SDS011;60566;48.062;9.930;2022-07-03T06:08:03;7.25;;;3.80;;
72388;SDS011;60566;48.062;9.930;2022-07-03T06:10:30;7.55;;;3.83;;
72388;SDS011;60566;48.062;9.930;2022-07-03T06:12:56;5.82;;;4.20;;
72388;SDS011;60566;48.062;9.930;2022-07-03T06:15:21;5.78;;;3.50;;
72388;SDS011;60566;48.062;9.930;2022-07-03T06:17:47;5.75;;;4.18;;
72388;SDS011;60566;48.062;9.930;2022-07-03T06:20:13;6.80;;;3.67;;
72388;SDS011;60566;48.062;9.930;2022-07-03T06:22:38;6.93;;;3.92;;
72388;SDS011;60566;48.062;9.930;2022-07-03T06:25:04;6.45;;;4.07;;
72388;SDS011;60566;48.062;9.930;2022-07-03T06:27:31;5.93;;;3.78;;
72388;SDS011;60566;48.062;9.930;2022-07-03T06:29:57;7.65;;;3.92;;
72388;SDS011;60566;48.062;9.930;2022-07-03T06:32:22;7.47;;;4.13;;
72388;SDS011;60566;48.062;9.930;2022-07-03T06:34:48;8.25;;;3.60;;
72388;SDS011;60566;48.062;9.930;2022-07-03T06:37:13;6.10;;;3.53;;
72388;SDS011;60566;48.062;9.930;2022-07-03T06:39:39;5.13;;;3.55;;
72388;SDS011;60566;48.062;9.930;2022-07-03T06:42:04;6.30;;;3.10;;
72388;SDS011;60566;48.062;9.930;2022-07-03T06:44:31;4.85;;;3.53;;
72388;SDS011;60566;48.062;9.930;2022-07-03T06:46:57;6.55;;;3.28;;
72388;SDS011;60566;48.062;9.930;2022-07-03T06:49:22;5.85;;;3.00;;
72388;SDS011;60566;48.062;9.930;2022-07-03T06:51:48;4.78;;;3.13;;
72388;SDS011;60566;48.062;9.930;2022-07-03T06:54:13;4.45;;;2.97;;
72388;SDS011;60566;48.062;9.930;2022-07-03T06:56:39;5.15;;;3.03;;
72388;SDS011;60566;48.062;9.930;2022-07-03T06:59:04;4.20;;;2.90;;
72388;SDS011;60566;48.062;9.930;2022-07-03T07:01:31;4.95;;;3.10;;
72388;SDS011;60566;48.062;9.930;2022-07-03T07:03:56;4.97;;;2.65;;
72388;SDS011;60566;48.062;9.930;2022-07-03T07:06:22;4.60;;;2.92;;
72388;SDS011;60566;48.062;9.930;2022-07-03T07:08:48;4.38;;;2.50;;
72388;SDS011;60566;48.062;9.930;2022-07-03T07:11:13;4.35;;;2.80;;
72388;SDS011;60566;48.062;9.930;2022-07-03T07:13:39;4.03;;;2.30;;
72388;SDS011;60566;48.062;9.930;2022-07-03T07:16:04;4.13;;;2.20;;
72388;SDS011;60566;48.062;9.930;2022-07-03T07:18:31;5.82;;;2.50;;
72388;SDS011;60566;48.062;9.930;2022-07-03T07:20:57;5.13;;;2.40;;
72388;SDS011;60566;48.062;9.930;2022-07-03T07:23:22;5.78;;;2.17;;
72388;SDS011;60566;48.062;9.930;2022-07-03T07:25:47;7.05;;;2.42;;
72388;SDS011;60566;48.062;9.930;2022-07-03T07:28:13;4.45;;;2.33;;
72388;SDS011;60566;48.062;9.930;2022-07-03T07:30:38;4.22;;;2.03;;
72388;SDS011;60566;48.062;9.930;2022-07-03T07:33:04;4.63;;;2.13;;
72388;SDS011;60566;48.062;9.930;2022-07-03T07:35:30;4.32;;;1.88;;
72388;SDS011;60566;48.062;9.930;2022-07-03T07:37:56;4.80;;;1.92;;
72388;SDS011;60566;48.062;9.930;2022-07-03T07:40:21;4.30;;;2.20;;
72388;SDS011;60566;48.062;9.930;2022-07-03T07:42:47;4.00;;;1.83;;
72388;SDS011;60566;48.062;9.930;2022-07-03T07:45:12;3.40;;;2.08;;
72388;SDS011;60566;48.062;9.930;2022-07-03T07:47:38;5.40;;;1.88;;
72388;SDS011;60566;48.062;9.930;2022-07-03T07:50:03;4.75;;;1.92;;
72388;SDS011;60566;48.062;9.930;2022-07-03T07:52:31;4.38;;;1.70;;
72388;SDS011;60566;48.062;9.930;2022-07-03T07:54:56;2.90;;;1.60;;
72388;SDS011;60566;48.062;9.930;2022-07-03T07:57:21;3.22;;;1.73;;
72388;SDS011;60566;48.062;9.930;2022-07-03T07:59:50;4.00;;;1.58;;
72388;SDS011;60566;48.062;9.930;2022-07-03T08:02:15;3.35;;;1.83;;
72388;SDS011;60566;48.062;9.930;2022-07-03T08:04:41;4.97;;;1.65;;
72388;SDS011;60566;48.062;9.930;2022-07-03T08:07:06;4.25;;;1.70;;
72388;SDS011;60566;48.062;9.930;2022-07-03T08:09:33;2.72;;;1.70;;
72388;SDS011;60566;48.062;9.930;2022-07-03T08:11:58;2.80;;;1.42;;
72388;SDS011;60566;48.062;9.930;2022-07-03T08:14:24;3.00;;;1.40;;
72388;SDS011;60566;48.062;9.930;2022-07-03T08:16:49;2.83;;;1.30;;
72388;SDS011;60566;48.062;9.930;2022-07-03T08:19:14;2.63;;;1.20;;
72388;SDS011;60566;48.062;9.930;2022-07-03T08:21:40;3.50;;;1.30;;
72388;SDS011;60566;48.062;9.930;2022-07-03T08:24:06;4.53;;;1.50;;
72388;SDS011;60566;48.062;9.930;2022-07-03T08:26:33;2.55;;;1.20;;
72388;SDS011;60566;48.062;9.930;2022-07-03T08:28:58;2.53;;;1.30;;
72388;SDS011;60566;48.062;9.930;2022-07-03T08:31:23;2.97;;;1.35;;
72388;SDS011;60566;48.062;9.930;2022-07-03T08:33:49;3.08;;;1.52;;
72388;SDS011;60566;48.062;9.930;2022-07-03T08:36:14;2.17;;;1.15;;
72388;SDS011;60566;48.062;9.930;2022-07-03T08:38:40;2.65;;;1.40;;
72388;SDS011;60566;48.062;9.930;2022-07-03T08:41:05;2.90;;;1.20;;
72388;SDS011;60566;48.062;9.930;2022-07-03T08:43:33;3.35;;;1.45;;
72388;SDS011;60566;48.062;9.930;2022-07-03T08:45:59;3.53;;;1.30;;
72388;SDS011;60566;48.062;9.930;2022-07-03T08:48:24;2.38;;;1.30;;
72388;SDS011;60566;48.062;9.930;2022-07-03T08:50:50;2.80;;;1.33;;
72388;SDS011;60566;48.062;9.930;2022-07-03T08:53:16;3.88;;;1.40;;
72388;SDS011;60566;48.062;9.930;2022-07-03T08:55:42;2.65;;;1.13;;
72388;SDS011;60566;48.062;9.930;2022-07-03T08:58:12;2.58;;;1.40;;
72388;SDS011;60566;48.062;9.930;2022-07-03T09:00:39;2.78;;;1.30;;
72388;SDS011;60566;48.062;9.930;2022-07-03T09:03:08;2.83;;;1.67;;
72388;SDS011;60566;48.062;9.930;2022-07-03T09:05:34;2.35;;;1.27;;
72388;SDS011;60566;48.062;9.930;2022-07-03T09:08:00;2.58;;;1.40;;
72388;SDS011;60566;48.062;9.930;2022-07-03T09:10:27;4.03;;;1.30;;
72388;SDS011;60566;48.062;9.930;2022-07-03T09:12:52;2.85;;;1.52;;
72388;SDS011;60566;48.062;9.930;2022-07-03T09:15:18;2.92;;;1.45;;
72388;SDS011;60566;48.062;9.930;2022-07-03T09:17:58;2.88;;;1.60;;
72388;SDS011;60566;48.062;9.930;2022-07-03T09:20:27;3.40;;;1.77;;
72388;SDS011;60566;48.062;9.930;2022-07-03T09:22:53;4.13;;;1.85;;
72388;SDS011;60566;48.062;9.930;2022-07-03T09:25:33;2.40;;;1.20;;
72388;SDS011;60566;48.062;9.930;2022-07-03T09:27:58;3.40;;;1.50;;
72388;SDS011;60566;48.062;9.930;2022-07-03T09:30:23;2.65;;;1.50;;
72388;SDS011;60566;48.062;9.930;2022-07-03T09:32:49;2.33;;;1.20;;
72388;SDS011;60566;48.062;9.930;2022-07-03T09:35:19;2.85;;;1.60;;
72388;SDS011;60566;48.062;9.930;2022-07-03T09:37:49;3.28;;;1.35;;
72388;SDS011;60566;48.062;9.930;2022-07-03T09:40:17;3.33;;;1.45;;
72388;SDS011;60566;48.062;9.930;2022-07-03T09:43:00;2.97;;;1.35;;
72388;SDS011;60566;48.062;9.930;2022-07-03T09:45:26;3.78;;;1.10;;
72388;SDS011;60566;48.062;9.930;2022-07-03T09:47:52;3.10;;;1.10;;
72388;SDS011;60566;48.062;9.930;2022-07-03T09:50:19;4.75;;;1.40;;
72388;SDS011;60566;48.062;9.930;2022-07-03T09:52:45;2.30;;;1.33;;
72388;SDS011;60566;48.062;9.930;2022-07-03T09:55:14;9.25;;;1.65;;
72388;SDS011;60566;48.062;9.930;2022-07-03T09:57:42;3.25;;;1.35;;
72388;SDS011;60566;48.062;9.930;2022-07-03T10:00:12;2.55;;;1.40;;
72388;SDS011;60566;48.062;9.930;2022-07-03T10:05:21;2.30;;;1.20;;
72388;SDS011;60566;48.062;9.930;2022-07-03T10:07:54;2.42;;;1.50;;
72388;SDS011;60566;48.062;9.930;2022-07-03T10:10:21;2.60;;;1.30;;
72388;SDS011;60566;48.062;9.930;2022-07-03T10:12:48;3.70;;;1.35;;
72388;SDS011;60566;48.062;9.930;2022-07-03T10:15:15;2.25;;;1.10;;
72388;SDS011;60566;48.062;9.930;2022-07-03T10:17:40;2.38;;;1.25;;
72388;SDS011;60566;48.062;9.930;2022-07-03T10:20:09;2.17;;;1.13;;
72388;SDS011;60566;48.062;9.930;2022-07-03T10:22:40;3.47;;;1.30;;
72388;SDS011;60566;48.062;9.930;2022-07-03T10:25:07;2.70;;;1.42;;
72388;SDS011;60566;48.062;9.930;2022-07-03T10:27:33;2.75;;;1.10;;
72388;SDS011;60566;48.062;9.930;2022-07-03T10:30:00;2.65;;;1.17;;
72388;SDS011;60566;48.062;9.930;2022-07-03T10:32:27;4.63;;;1.25;;
72388;SDS011;60566;48.062;9.930;2022-07-03T10:34:53;2.90;;;1.40;;
72388;SDS011;60566;48.062;9.930;2022-07-03T10:37:18;2.60;;;1.50;;
72388;SDS011;60566;48.062;9.930;2022-07-03T10:39:48;2.47;;;1.23;;
72388;SDS011;60566;48.062;9.930;2022-07-03T10:42:19;3.63;;;1.20;;
72388;SDS011;60566;48.062;9.930;2022-07-03T10:44:49;2.22;;;1.20;;
72388;SDS011;60566;48.062;9.930;2022-07-03T10:47:36;3.65;;;1.30;;
72388;SDS011;60566;48.062;9.930;2022-07-03T10:50:03;2.72;;;1.40;;
72388;SDS011;60566;48.062;9.930;2022-07-03T10:52:33;2.40;;;1.20;;
72388;SDS011;60566;48.062;9.930;2022-07-03T10:54:59;2.75;;;1.52;;
72388;SDS011;60566;48.062;9.930;2022-07-03T10:57:25;2.95;;;1.42;;
72388;SDS011;60566;48.062;9.930;2022-07-03T11:02:41;2.80;;;1.40;;
72388;SDS011;60566;48.062;9.930;2022-07-03T11:05:17;2.90;;;1.40;;
72388;SDS011;60566;48.062;9.930;2022-07-03T11:10:33;2.42;;;1.20;;
72388;SDS011;60566;48.062;9.930;2022-07-03T11:13:00;2.83;;;1.40;;
72388;SDS011;60566;48.062;9.930;2022-07-03T11:15:28;2.90;;;1.50;;
72388;SDS011;60566;48.062;9.930;2022-07-03T11:18:11;2.58;;;1.30;;
72388;SDS011;60566;48.062;9.930;2022-07-03T11:38:07;1.85;;;1.20;;
72388;SDS011;60566;48.062;9.930;2022-07-03T11:40:33;7.38;;;5.65;;
72388;SDS011;60566;48.062;9.930;2022-07-03T11:43:01;18.52;;;15.90;;
72388;SDS011;60566;48.062;9.930;2022-07-03T11:45:27;12.30;;;9.20;;
72388;SDS011;60566;48.062;9.930;2022-07-03T11:47:53;18.85;;;10.70;;
72388;SDS011;60566;48.062;9.930;2022-07-03T11:50:19;2.85;;;1.50;;
72388;SDS011;60566;48.062;9.930;2022-07-03T11:52:44;3.55;;;1.10;;
72388;SDS011;60566;48.062;9.930;2022-07-03T11:55:09;3.22;;;2.00;;
72388;SDS011;60566;48.062;9.930;2022-07-03T11:57:35;3.75;;;1.33;;
72388;SDS011;60566;48.062;9.930;2022-07-03T12:00:05;2.53;;;1.25;;
72388;SDS011;60566;48.062;9.930;2022-07-03T12:02:31;3.40;;;1.33;;
72388;SDS011;60566;48.062;9.930;2022-07-03T12:04:57;2.33;;;1.20;;
72388;SDS011;60566;48.062;9.930;2022-07-03T12:07:22;3.00;;;1.25;;
72388;SDS011;60566;48.062;9.930;2022-07-03T12:09:49;1.75;;;0.90;;
72388;SDS011;60566;48.062;9.930;2022-07-03T12:12:14;2.35;;;1.13;;
72388;SDS011;60566;48.062;9.930;2022-07-03T12:14:41;3.72;;;1.20;;
72388;SDS011;60566;48.062;9.930;2022-07-03T12:17:10;2.55;;;1.15;;
72388;SDS011;60566;48.062;9.930;2022-07-03T12:19:36;2.38;;;1.20;;
72388;SDS011;60566;48.062;9.930;2022-07-03T12:22:02;2.47;;;1.00;;
72388;SDS011;60566;48.062;9.930;2022-07-03T12:24:27;3.75;;;1.20;;
72388;SDS011;60566;48.062;9.930;2022-07-03T12:26:53;3.83;;;1.38;;
72388;SDS011;60566;48.062;9.930;2022-07-03T12:29:19;2.83;;;1.38;;
72388;SDS011;60566;48.062;9.930;2022-07-03T12:31:45;2.67;;;1.15;;
72388;SDS011;60566;48.062;9.930;2022-07-03T12:34:13;3.70;;;1.10;;
72388;SDS011;60566;48.062;9.930;2022-07-03T12:36:40;1.92;;;0.95;;
72388;SDS011;60566;48.062;9.930;2022-07-03T12:39:06;1.90;;;1.05;;
72388;SDS011;60566;48.062;9.930;2022-07-03T12:41:32;1.88;;;0.95;;
72388;SDS011;60566;48.062;9.930;2022-07-03T12:43:58;2.15;;;1.00;;
72388;SDS011;60566;48.062;9.930;2022-07-03T12:46:24;2.50;;;1.10;;
72388;SDS011;60566;48.062;9.930;2022-07-03T12:48:51;3.50;;;1.10;;
72388;SDS011;60566;48.062;9.930;2022-07-03T12:54:03;1.42;;;0.95;;
72388;SDS011;60566;48.062;9.930;2022-07-03T12:56:28;4.05;;;1.40;;
72388;SDS011;60566;48.062;9.930;2022-07-03T12:58:53;2.47;;;1.13;;
72388;SDS011;60566;48.062;9.930;2022-07-03T13:01:26;1.88;;;0.95;;
72388;SDS011;60566;48.062;9.930;2022-07-03T13:03:51;2.13;;;1.10;;
72388;SDS011;60566;48.062;9.930;2022-07-03T13:06:17;3.17;;;0.93;;
72388;SDS011;60566;48.062;9.930;2022-07-03T13:08:53;2.53;;;1.42;;
72388;SDS011;60566;48.062;9.930;2022-07-03T13:11:25;3.05;;;1.20;;
72388;SDS011;60566;48.062;9.930;2022-07-03T13:13:52;3.38;;;1.40;;
72388;SDS011;60566;48.062;9.930;2022-07-03T13:16:23;2.42;;;1.42;;
72388;SDS011;60566;48.062;9.930;2022-07-03T13:18:56;2.38;;;1.10;;
72388;SDS011;60566;48.062;9.930;2022-07-03T13:21:21;3.97;;;1.30;;
72388;SDS011;60566;48.062;9.930;2022-07-03T13:23:47;3.90;;;1.17;;
72388;SDS011;60566;48.062;9.930;2022-07-03T13:26:14;2.85;;;1.17;;
72388;SDS011;60566;48.062;9.930;2022-07-03T13:28:39;2.83;;;1.25;;
72388;SDS011;60566;48.062;9.930;2022-07-03T13:31:04;2.40;;;1.20;;
72388;SDS011;60566;48.062;9.930;2022-07-03T13:33:30;3.72;;;1.30;;
72388;SDS011;60566;48.062;9.930;2022-07-03T13:35:55;3.78;;;1.20;;
72388;SDS011;60566;48.062;9.930;2022-07-03T13:38:21;2.78;;;1.25;;
72388;SDS011;60566;48.062;9.930;2022-07-03T13:40:46;4.93;;;1.30;;
72388;SDS011;60566;48.062;9.930;2022-07-03T13:43:13;2.97;;;1.25;;
72388;SDS011;60566;48.062;9.930;2022-07-03T13:45:38;1.92;;;1.10;;
72388;SDS011;60566;48.062;9.930;2022-07-03T13:48:04;2.25;;;1.20;;
72388;SDS011;60566;48.062;9.930;2022-07-03T13:50:30;2.40;;;1.27;;
72388;SDS011;60566;48.062;9.930;2022-07-03T13:52:55;2.22;;;1.10;;
72388;SDS011;60566;48.062;9.930;2022-07-03T13:55:20;3.80;;;1.30;;
72388;SDS011;60566;48.062;9.930;2022-07-03T13:57:46;2.40;;;1.10;;
72388;SDS011;60566;48.062;9.930;2022-07-03T14:00:13;2.63;;;1.15;;
72388;SDS011;60566;48.062;9.930;2022-07-03T14:02:39;2.47;;;0.93;;
72388;SDS011;60566;48.062;9.930;2022-07-03T14:05:05;3.13;;;1.23;;
72388;SDS011;60566;48.062;9.930;2022-07-03T14:07:31;4.85;;;2.45;;
72388;SDS011;60566;48.062;9.930;2022-07-03T14:09:56;3.63;;;1.40;;
72388;SDS011;60566;48.062;9.930;2022-07-03T14:12:21;4.40;;;1.80;;
72388;SDS011;60566;48.062;9.930;2022-07-03T14:14:47;7.57;;;5.55;;
72388;SDS011;60566;48.062;9.930;2022-07-03T14:17:14;5.05;;;1.55;;
72388;SDS011;60566;48.062;9.930;2022-07-03T14:19:39;3.40;;;1.20;;
72388;SDS011;60566;48.062;9.930;2022-07-03T14:22:04;2.92;;;1.90;;
72388;SDS011;60566;48.062;9.930;2022-07-03T14:24:30;3.70;;;1.40;;
72388;SDS011;60566;48.062;9.930;2022-07-03T14:26:55;3.50;;;1.10;;
72388;SDS011;60566;48.062;9.930;2022-07-03T14:29:21;2.33;;;1.20;;
72388;SDS011;60566;48.062;9.930;2022-07-03T14:31:46;2.50;;;1.05;;
72388;SDS011;60566;48.062;9.930;2022-07-03T14:34:13;2.70;;;1.10;;
72388;SDS011;60566;48.062;9.930;2022-07-03T14:36:39;2.20;;;1.13;;
72388;SDS011;60566;48.062;9.930;2022-07-03T14:39:04;2.42;;;1.00;;
72388;SDS011;60566;48.062;9.930;2022-07-03T14:41:29;4.75;;;1.13;;
72388;SDS011;60566;48.062;9.930;2022-07-03T14:43:55;2.22;;;1.02;;
72388;SDS011;60566;48.062;9.930;2022-07-03T14:46:20;2.97;;;1.10;;
72388;SDS011;60566;48.062;9.930;2022-07-03T14:48:46;3.70;;;1.23;;
72388;SDS011;60566;48.062;9.930;2022-07-03T14:51:12;2.15;;;1.20;;
72388;SDS011;60566;48.062;9.930;2022-07-03T14:53:38;3.53;;;1.30;;
72388;SDS011;60566;48.062;9.930;2022-07-03T14:56:03;2.80;;;1.02;;
72388;SDS011;60566;48.062;9.930;2022-07-03T14:58:29;2.78;;;1.33;;
72388;SDS011;60566;48.062;9.930;2022-07-03T15:00:56;4.00;;;1.17;;
72388;SDS011;60566;48.062;9.930;2022-07-03T15:03:26;3.08;;;1.30;;
72388;SDS011;60566;48.062;9.930;2022-07-03T15:05:54;2.88;;;1.30;;
72388;SDS011;60566;48.062;9.930;2022-07-03T15:08:25;4.88;;;1.10;;
72388;SDS011;60566;48.062;9.930;2022-07-03T15:11:02;3.30;;;1.20;;
72388;SDS011;60566;48.062;9.930;2022-07-03T15:13:30;2.05;;;1.10;;
72388;SDS011;60566;48.062;9.930;2022-07-03T15:15:56;3.42;;;1.08;;
72388;SDS011;60566;48.062;9.930;2022-07-03T15:18:21;3.78;;;1.30;;
72388;SDS011;60566;48.062;9.930;2022-07-03T15:20:49;3.60;;;1.25;;